Airfield :
LOGIN :

Register | Disclaimer

   EN    FR    IT 

 










Legend :    VFR   Marginal VFR   IFR   Intensive IFR   Very Intensive IFR
Visi :
Ceiling :
>= 8 km
>= 3000ft
5 to 8 km
1000 to 3000 ft
1500m to 5 km
500 to 1000 ft
800 to 1500m
200 to 500 ft
< 800m
< 200 ft
Symbols :   Thunderstorms  Fog  Heavy snow  Heavy precipitations  Wind > 20 kt
SIGMETs :     Misc.  Thunderstorms  Icing  Turbulence  Mountain Waves  Volcanic Ashes







- Airport Elevation : 12 ft
- IATA code : NCE
- Download approach charts


LFMN - Nice

CURRENT METAR :
  • 131430Z 06008KT 030V090 9999 -RA SCT050 SCT060 BKN090 11/01 Q1009 NOSIG

EXPIRED METARs :
  • 131400Z 07009KT 050V110 9999 SCT050 SCT060 BKN090 11/01 Q1010 NOSIG
  • 131330Z 09012KT 9999 SCT046 SCT063 BKN090 11/01 Q1010 NOSIG
  • 131300Z 09011KT 060V120 9999 SCT046 BKN063 BKN093 11/01 Q1010 NOSIG
  • 131230Z 08011KT 9999 SCT046 BKN063 BKN086 11/02 Q1010 NOSIG
  • 131200Z 08014KT 9999 SCT040 BKN063 BKN093 11/03 Q1010 NOSIG

TAF TAF LFMN
Valid from the 13 at 15:00 until the 14 at 21:00 UTC


131400Z 1315/1421 09012KT 9999 BKN040
BECMG 1317/1319 36010KT BKN060
BECMG 1408/1410 26012KT CAVOK
PROB40
TEMPO 1414/1417 26020KT
BECMG 1416/1418 36010KT
ATIS : +33 4 93 17 21 16
No reported NOTAMs for that airfield.
1 SIGMET reported for the Marseille FIR (LFMM) :
 
Embedded thunderstorms
LFMM SIGMET 4 VALID 131300/131500 LFPW
LFMM MARSEILLE FIR/UIR EMBD TS OBS AT 1300Z WI N4115 E00800 - N4000 E00800 - N4045 E00600 - N4130 E00730 - N4115 E00800 TOP FL360 MOV NE 15KT NC=



MET'MAP, your aeronautical weather chart ! - Copyright ORBIFLY December 2007 - Disclaimer

ORBIFLY MET'MAP TEAM :

Programming & Development : Alexandra Zaïnal
Concept & Development : Baudouin d'Aumeries
Co-Development & Prog : Marc-Olivier Méhu
Technical & hardware support : Manuel Goepfert

Contact : metmap@orbifly.com




SOURCES & CREDITS :

   NOAA